createdAt,value
2022-09-12T00:01:23.480Z,19.13
2022-09-12T00:03:58.361Z,19.65
2022-09-12T00:06:36.933Z,21.27
2022-09-12T00:09:10.778Z,22.88
2022-09-12T00:11:42.649Z,19.17
2022-09-12T00:14:11.528Z,19.27
2022-09-12T00:16:39.423Z,21.52
2022-09-12T00:19:06.821Z,21.85
2022-09-12T00:21:35.205Z,20.38
2022-09-12T00:24:01.806Z,18.40
2022-09-12T00:26:28.520Z,18.52
2022-09-12T00:28:55.183Z,24.02
2022-09-12T00:31:26.539Z,24.90
2022-09-12T00:33:55.711Z,19.67
2022-09-12T00:36:24.242Z,24.50
2022-09-12T00:38:51.261Z,24.35
2022-09-12T00:41:21.832Z,20.77
2022-09-12T00:46:21.864Z,19.90
2022-09-12T00:48:54.251Z,21.55
2022-09-12T00:51:20.912Z,19.83
2022-09-12T00:53:49.936Z,18.55
2022-09-12T00:56:19.125Z,18.35
2022-09-12T00:58:57.880Z,17.95
2022-09-12T01:01:25.956Z,20.65
2022-09-12T01:03:54.786Z,19.92
2022-09-12T01:06:33.058Z,19.50
2022-09-12T01:09:03.404Z,22.67
2022-09-12T01:11:32.271Z,20.35
2022-09-12T01:13:59.853Z,20.30
2022-09-12T01:16:26.441Z,20.83
2022-09-12T01:19:25.558Z,20.25
2022-09-12T01:22:29.735Z,20.48
2022-09-12T01:25:38.231Z,18.55
2022-09-12T01:28:31.913Z,18.23
2022-09-12T01:31:08.014Z,17.60
2022-09-12T01:33:47.759Z,20.92
2022-09-12T01:36:39.225Z,22.13
2022-09-12T01:39:27.126Z,19.55
2022-09-12T01:42:06.453Z,19.42
2022-09-12T01:45:04.398Z,21.08
2022-09-12T01:47:41.205Z,18.55
2022-09-12T01:50:18.957Z,18.15
2022-09-12T01:52:54.053Z,17.15
2022-09-12T01:55:44.169Z,16.52
2022-09-12T01:58:29.305Z,16.85
2022-09-12T02:01:15.039Z,17.85
2022-09-12T02:03:45.057Z,19.25
2022-09-12T02:06:41.754Z,16.52
2022-09-12T02:09:18.520Z,16.92
2022-09-12T02:11:47.266Z,17.45
2022-09-12T02:14:32.600Z,19.27
2022-09-12T02:17:06.030Z,18.00
2022-09-12T02:19:40.783Z,16.90
2022-09-12T02:22:14.781Z,18.40
2022-09-12T02:24:47.301Z,17.92
2022-09-12T02:27:23.755Z,20.02
2022-09-12T02:29:50.907Z,24.17
2022-09-12T02:32:38.209Z,21.35
2022-09-12T02:35:26.328Z,19.67
2022-09-12T02:38:14.838Z,21.90
2022-09-12T02:40:41.728Z,20.58
2022-09-12T02:43:08.231Z,20.88
2022-09-12T02:45:36.631Z,19.98
2022-09-12T02:48:10.456Z,20.70
2022-09-12T02:50:38.665Z,17.13
2022-09-12T02:53:08.247Z,16.98
2022-09-12T02:55:37.027Z,18.07
2022-09-12T02:58:06.949Z,18.38
2022-09-12T03:00:39.909Z,19.83
2022-09-12T03:03:43.547Z,20.88
2022-09-12T03:06:25.014Z,21.75
2022-09-12T03:09:01.418Z,20.05
2022-09-12T03:11:54.054Z,20.52
2022-09-12T03:15:01.769Z,20.20
2022-09-12T03:18:09.606Z,19.58
2022-09-12T03:20:53.972Z,19.05
2022-09-12T03:23:31.142Z,18.40
2022-09-12T03:26:04.473Z,19.10
2022-09-12T03:28:33.482Z,17.67
2022-09-12T03:31:00.218Z,18.73
2022-09-12T03:33:26.949Z,19.42
2022-09-12T03:35:55.247Z,17.13
2022-09-12T03:38:21.737Z,19.45
2022-09-12T03:40:52.686Z,19.20
2022-09-12T03:43:21.290Z,17.80
2022-09-12T03:45:52.399Z,18.67
2022-09-12T03:48:19.024Z,17.98
2022-09-12T03:50:45.700Z,21.08
2022-09-12T03:53:16.552Z,21.55
2022-09-12T03:55:43.946Z,21.52
2022-09-12T03:58:11.247Z,19.27
2022-09-12T04:00:39.608Z,20.75
2022-09-12T04:03:06.202Z,20.75
2022-09-12T04:05:33.124Z,20.30
2022-09-12T04:07:59.596Z,19.40
2022-09-12T04:10:26.151Z,18.85
2022-09-12T04:12:52.940Z,19.83
2022-09-12T04:15:19.406Z,23.30
2022-09-12T04:17:45.868Z,18.10
2022-09-12T04:20:12.676Z,22.92
2022-09-12T04:22:39.257Z,21.42
2022-09-12T04:25:06.279Z,25.23
2022-09-12T04:27:33.110Z,28.60
2022-09-12T04:30:01.164Z,22.63
2022-09-12T04:32:29.656Z,20.90
2022-09-12T04:34:56.601Z,19.85
2022-09-12T04:37:24.194Z,21.33
2022-09-12T04:39:51.780Z,20.73
2022-09-12T04:42:18.502Z,21.55
2022-09-12T04:44:44.979Z,25.42
2022-09-12T04:47:11.475Z,22.80
2022-09-12T04:49:38.170Z,21.15
2022-09-12T04:52:04.639Z,27.20
2022-09-12T04:54:31.205Z,23.63
2022-09-12T04:56:57.874Z,29.38
2022-09-12T04:59:24.392Z,27.15
2022-09-12T05:01:51.315Z,26.85
2022-09-12T05:04:18.639Z,22.05
2022-09-12T05:06:47.623Z,23.65
2022-09-12T05:09:14.723Z,29.38
2022-09-12T05:14:32.593Z,31.65
2022-09-12T05:17:01.652Z,30.10
2022-09-12T05:19:30.126Z,31.13
2022-09-12T05:21:56.852Z,31.25
2022-09-12T05:24:24.768Z,30.40
2022-09-12T05:26:51.634Z,35.17
2022-09-12T05:29:18.300Z,28.90
2022-09-12T05:31:45.245Z,33.25
2022-09-12T05:34:12.696Z,35.22
2022-09-12T05:36:39.179Z,37.42
2022-09-12T05:39:05.966Z,34.10
2022-09-12T05:41:33.810Z,30.75
2022-09-12T05:44:02.614Z,29.80
2022-09-12T05:46:37.734Z,31.88
2022-09-12T05:49:10.021Z,28.83
2022-09-12T05:51:39.398Z,31.33
2022-09-12T05:54:07.692Z,36.95
2022-09-12T05:56:39.396Z,40.45
2022-09-12T05:59:26.199Z,39.22
2022-09-12T06:01:54.089Z,47.15
2022-09-12T06:04:20.648Z,42.42
2022-09-12T06:06:47.241Z,42.40
2022-09-12T06:09:16.154Z,43.90
2022-09-12T06:11:43.249Z,40.17
2022-09-12T06:14:12.597Z,45.60
2022-09-12T06:16:39.432Z,41.28
2022-09-12T06:19:15.293Z,43.65
2022-09-12T06:21:42.082Z,39.05
2022-09-12T06:24:08.587Z,52.72
2022-09-12T06:26:35.478Z,42.22
2022-09-12T06:29:02.937Z,49.03
2022-09-12T06:31:35.031Z,45.95
2022-09-12T06:34:04.604Z,52.40
2022-09-12T06:36:37.998Z,58.60
2022-09-12T06:39:16.901Z,49.72
2022-09-12T06:41:44.661Z,47.30
2022-09-12T06:44:14.921Z,46.53
2022-09-12T06:46:41.829Z,51.42
2022-09-12T06:49:08.606Z,59.25
2022-09-12T06:51:36.259Z,59.13
2022-09-12T06:54:03.718Z,53.25
2022-09-12T06:56:30.215Z,56.10
2022-09-12T06:58:58.321Z,56.92
2022-09-12T07:01:27.740Z,56.70
2022-09-12T07:03:56.891Z,51.92
2022-09-12T07:06:26.083Z,53.80
2022-09-12T07:08:52.534Z,58.10
2022-09-12T07:11:21.898Z,53.70
2022-09-12T07:13:50.812Z,52.85
2022-09-12T07:16:19.943Z,57.90
2022-09-12T07:18:51.712Z,57.45
2022-09-12T07:21:18.144Z,59.53
2022-09-12T07:23:45.595Z,57.30
2022-09-12T07:26:13.412Z,53.53
2022-09-12T07:28:40.317Z,56.60
2022-09-12T07:31:10.864Z,54.50
2022-09-12T07:36:06.776Z,55.53
2022-09-12T07:38:33.382Z,59.70
2022-09-12T07:41:01.145Z,53.67
2022-09-12T07:43:27.985Z,57.40
2022-09-12T07:45:58.019Z,56.88
2022-09-12T07:48:24.752Z,53.10
2022-09-12T07:51:02.155Z,56.63
2022-09-12T07:53:32.983Z,54.90
2022-09-12T07:56:00.657Z,58.03
2022-09-12T07:58:27.468Z,48.97
2022-09-12T08:00:54.015Z,53.63
2022-09-12T08:03:20.518Z,54.78
2022-09-12T08:05:47.536Z,53.67
2022-09-12T08:08:14.032Z,55.35
2022-09-12T08:10:40.465Z,52.58
2022-09-12T08:13:10.125Z,52.00
2022-09-12T08:15:37.306Z,53.28
2022-09-12T08:18:03.826Z,52.72
2022-09-12T08:20:31.073Z,48.58
2022-09-12T08:22:57.688Z,49.75
2022-09-12T08:25:24.182Z,51.33
2022-09-12T08:27:50.794Z,52.28
2022-09-12T08:30:17.311Z,47.22
2022-09-12T08:32:44.414Z,43.60
2022-09-12T08:35:11.230Z,51.70
2022-09-12T08:37:37.891Z,53.13
2022-09-12T08:40:07.198Z,68.30
2022-09-12T08:42:54.405Z,45.03
2022-09-12T08:45:30.359Z,53.97
2022-09-12T08:47:57.533Z,51.42
2022-09-12T08:50:24.058Z,43.90
2022-09-12T08:52:58.888Z,45.78
2022-09-12T08:55:33.561Z,40.03
2022-09-12T08:58:02.681Z,43.90
2022-09-12T09:00:38.518Z,41.08
2022-09-12T09:03:15.333Z,43.03
2022-09-12T09:05:51.313Z,42.35
2022-09-12T09:08:17.769Z,41.17
2022-09-12T09:10:59.750Z,38.75
2022-09-12T09:13:54.016Z,42.15
2022-09-12T09:16:27.725Z,40.47
2022-09-12T09:18:57.245Z,41.15
2022-09-12T09:21:31.691Z,43.28
2022-09-12T09:24:05.963Z,39.40
2022-09-12T09:26:53.461Z,37.35
2022-09-12T09:29:26.960Z,41.55
2022-09-12T09:31:57.664Z,39.40
2022-09-12T09:34:31.593Z,39.45
2022-09-12T09:37:20.973Z,35.75
2022-09-12T09:40:28.923Z,35.92
2022-09-12T09:43:04.903Z,36.58
2022-09-12T09:45:31.893Z,33.35
2022-09-12T09:48:17.524Z,35.00
2022-09-12T09:50:46.143Z,30.30
2022-09-12T09:53:27.129Z,32.30
2022-09-12T09:55:56.787Z,31.95
2022-09-12T09:58:34.333Z,29.83
2022-09-12T10:01:06.432Z,33.25
2022-09-12T10:03:37.165Z,27.42
2022-09-12T10:06:22.569Z,25.27
2022-09-12T10:08:50.222Z,26.02
2022-09-12T10:11:16.745Z,26.48
2022-09-12T10:13:57.253Z,28.58
2022-09-12T10:18:58.751Z,25.88
2022-09-12T10:22:01.002Z,24.42
2022-09-12T10:24:35.075Z,26.02
2022-09-12T10:27:15.581Z,20.30
2022-09-12T10:32:17.023Z,19.58
2022-09-12T10:34:45.544Z,19.50
2022-09-12T10:37:40.186Z,23.05
2022-09-12T10:40:21.007Z,21.38
2022-09-12T10:42:53.201Z,20.23
2022-09-12T10:45:26.669Z,18.45
2022-09-12T10:47:55.572Z,16.30
2022-09-12T10:50:31.058Z,18.52
2022-09-12T10:53:14.856Z,17.38
2022-09-12T10:55:51.081Z,19.55
2022-09-12T10:59:05.267Z,15.55
2022-09-12T11:02:00.580Z,15.52
2022-09-12T11:04:30.277Z,13.55
2022-09-12T11:07:14.959Z,16.20
2022-09-12T11:10:04.550Z,15.90
2022-09-12T11:12:58.486Z,13.13
2022-09-12T11:15:43.265Z,12.13
2022-09-12T11:18:33.245Z,12.68
2022-09-12T11:21:14.820Z,13.05
2022-09-12T11:24:12.521Z,14.65
2022-09-12T11:27:14.647Z,10.88
2022-09-12T11:29:49.888Z,13.18
2022-09-12T11:32:19.534Z,10.65
2022-09-12T11:35:17.160Z,10.82
2022-09-12T11:38:21.445Z,11.05
2022-09-12T11:40:55.878Z,11.00
2022-09-12T11:43:38.669Z,10.27
2022-09-12T11:46:21.311Z,7.72
2022-09-12T11:49:09.360Z,11.98
2022-09-12T11:51:57.801Z,9.43
2022-09-12T11:54:44.894Z,10.10
2022-09-12T11:57:21.702Z,11.13
2022-09-12T11:59:59.295Z,9.13
2022-09-12T12:02:31.118Z,9.15
2022-09-12T12:05:20.500Z,9.77
2022-09-12T12:07:56.103Z,11.20
2022-09-12T12:10:51.568Z,10.93
2022-09-12T12:13:21.420Z,12.25
2022-09-12T12:15:55.149Z,9.93
2022-09-12T12:18:27.948Z,11.88
2022-09-12T12:20:56.709Z,9.55
2022-09-12T12:23:32.215Z,8.50
2022-09-12T12:26:04.617Z,10.65
2022-09-12T12:28:43.167Z,12.80
2022-09-12T12:31:10.756Z,8.57
2022-09-12T12:33:37.425Z,9.60
2022-09-12T12:36:28.441Z,9.50
2022-09-12T12:38:55.162Z,11.63
2022-09-12T12:41:21.691Z,10.52
2022-09-12T12:43:53.453Z,10.68
2022-09-12T12:46:26.692Z,8.20
2022-09-12T12:49:23.050Z,8.68
2022-09-12T12:52:01.565Z,9.38
2022-09-12T12:54:48.241Z,10.60
2022-09-12T12:57:25.134Z,10.70
2022-09-12T12:59:56.730Z,9.05
2022-09-12T13:02:31.808Z,8.00
2022-09-12T13:05:02.131Z,8.43
2022-09-12T13:09:59.463Z,5.57
2022-09-12T13:12:34.117Z,7.45
2022-09-12T13:15:03.426Z,7.82
2022-09-12T13:17:32.613Z,6.40
2022-09-12T13:20:28.298Z,6.07
2022-09-12T13:22:56.005Z,6.60
2022-09-12T13:25:27.987Z,7.97
2022-09-12T13:28:01.345Z,7.05
2022-09-12T13:30:31.591Z,6.38
2022-09-12T13:35:35.830Z,6.70
2022-09-12T13:38:16.692Z,7.00
2022-09-12T13:41:07.709Z,8.27
2022-09-12T13:43:41.518Z,9.07
2022-09-12T13:46:10.969Z,8.02
2022-09-12T13:48:39.733Z,5.55
2022-09-12T13:51:06.969Z,9.07
2022-09-12T13:53:44.623Z,8.27
2022-09-12T13:56:19.286Z,7.35
2022-09-12T13:59:13.390Z,9.70
2022-09-12T14:01:44.292Z,6.97
2022-09-12T14:04:37.956Z,5.47
2022-09-12T14:07:23.534Z,7.53
2022-09-12T14:09:58.822Z,6.85
2022-09-12T14:12:30.238Z,6.32
2022-09-12T14:14:57.352Z,5.35
2022-09-12T14:17:30.027Z,6.72
2022-09-12T14:20:04.536Z,5.70
2022-09-12T14:22:32.379Z,7.00
2022-09-12T14:24:59.565Z,6.13
2022-09-12T14:27:29.101Z,8.82
2022-09-12T14:30:23.872Z,4.78
2022-09-12T14:33:12.104Z,4.90
2022-09-12T14:35:43.662Z,5.60
2022-09-12T14:38:16.001Z,5.68
2022-09-12T14:41:05.768Z,6.72
2022-09-12T14:43:34.853Z,4.20
2022-09-12T14:46:04.013Z,6.40
2022-09-12T14:48:33.112Z,6.43
2022-09-12T14:50:59.919Z,7.82
2022-09-12T14:53:32.576Z,5.60
2022-09-12T14:56:13.289Z,7.57
2022-09-12T14:58:40.938Z,6.40
2022-09-12T15:01:07.829Z,10.63
2022-09-12T15:03:49.333Z,6.65
2022-09-12T15:06:38.072Z,8.98
2022-09-12T15:09:08.755Z,5.28
2022-09-12T15:11:35.474Z,6.90
2022-09-12T15:14:15.191Z,5.82
2022-09-12T15:16:42.592Z,6.20
2022-09-12T15:19:09.687Z,5.75
2022-09-12T15:21:36.236Z,4.93
2022-09-12T15:24:02.926Z,5.57
2022-09-12T15:26:31.585Z,5.68
2022-09-12T15:28:58.448Z,5.78
2022-09-12T15:31:32.186Z,5.35
2022-09-12T15:34:02.435Z,6.57
2022-09-12T15:38:56.696Z,6.45
2022-09-12T15:41:30.111Z,7.18
2022-09-12T15:43:56.782Z,4.45
2022-09-12T15:46:23.693Z,6.35
2022-09-12T15:48:50.471Z,6.85
2022-09-12T15:51:21.731Z,5.82
2022-09-12T15:53:50.216Z,6.22
2022-09-12T15:56:18.764Z,6.32
2022-09-12T15:58:57.747Z,5.65
2022-09-12T16:01:25.920Z,5.93
2022-09-12T16:03:52.465Z,12.30
2022-09-12T16:06:18.894Z,5.85
2022-09-12T16:08:45.621Z,5.30
2022-09-12T16:11:18.766Z,7.75
2022-09-12T16:13:45.368Z,8.30
2022-09-12T16:16:11.997Z,6.65
2022-09-12T16:18:41.954Z,6.18
2022-09-12T16:21:14.071Z,8.02
2022-09-12T16:23:45.804Z,5.00
2022-09-12T16:26:12.345Z,7.70
2022-09-12T16:28:38.969Z,6.10
2022-09-12T16:31:08.037Z,5.43
2022-09-12T16:33:38.192Z,6.57
2022-09-12T16:36:10.750Z,7.10
2022-09-12T16:38:49.491Z,7.55
2022-09-12T16:41:17.901Z,7.28
2022-09-12T16:43:45.498Z,4.40
2022-09-12T16:46:24.356Z,6.95
2022-09-12T16:48:53.931Z,6.28
2022-09-12T16:51:26.282Z,6.22
2022-09-12T16:53:56.050Z,5.47
2022-09-12T16:56:23.425Z,5.40
2022-09-12T16:58:50.765Z,4.82
2022-09-12T17:01:23.362Z,7.68
2022-09-12T17:04:01.604Z,6.57
2022-09-12T17:06:28.581Z,5.72
2022-09-12T17:08:58.362Z,6.38
2022-09-12T17:11:29.823Z,5.15
2022-09-12T17:14:04.958Z,4.85
2022-09-12T17:16:35.477Z,5.47
2022-09-12T17:19:02.392Z,6.85
2022-09-12T17:21:29.087Z,4.78
2022-09-12T17:23:55.926Z,4.95
2022-09-12T17:26:22.916Z,4.65
2022-09-12T17:28:49.832Z,5.28
2022-09-12T17:31:17.457Z,4.25
2022-09-12T17:33:44.409Z,5.22
2022-09-12T17:36:15.205Z,4.32
2022-09-12T17:38:43.702Z,5.93
2022-09-12T17:41:18.085Z,6.03
2022-09-12T17:43:47.507Z,7.53
2022-09-12T17:46:14.294Z,7.60
2022-09-12T17:48:45.086Z,8.82
2022-09-12T17:51:14.044Z,6.13
2022-09-12T17:53:41.564Z,5.90
2022-09-12T17:56:09.105Z,5.75
2022-09-12T17:58:36.476Z,6.57
2022-09-12T18:01:32.561Z,6.90
2022-09-12T18:04:00.801Z,6.45
2022-09-12T18:06:32.314Z,6.25
2022-09-12T18:09:08.152Z,5.18
2022-09-12T18:11:35.552Z,4.43
2022-09-12T18:14:02.657Z,5.63
2022-09-12T18:16:31.472Z,4.90
2022-09-12T18:19:04.441Z,6.25
2022-09-12T18:21:31.029Z,5.82
2022-09-12T18:24:01.749Z,4.90
2022-09-12T18:26:29.385Z,6.00
2022-09-12T18:28:56.866Z,6.95
2022-09-12T18:31:26.260Z,5.30
2022-09-12T18:33:53.028Z,7.03
2022-09-12T18:36:20.225Z,9.15
2022-09-12T18:38:48.128Z,4.60
2022-09-12T18:41:22.826Z,6.45
2022-09-12T18:43:57.665Z,5.50
2022-09-12T18:46:28.426Z,6.50
2022-09-12T18:48:57.933Z,5.13
2022-09-12T18:51:33.992Z,6.82
2022-09-12T18:54:03.389Z,5.90
2022-09-12T18:56:34.838Z,5.47
2022-09-12T18:59:02.702Z,7.22
2022-09-12T19:01:32.059Z,6.03
2022-09-12T19:04:00.892Z,8.60
2022-09-12T19:06:30.167Z,7.38
2022-09-12T19:08:57.707Z,6.10
2022-09-12T19:11:31.960Z,6.97
2022-09-12T19:13:59.186Z,8.48
2022-09-12T19:16:30.885Z,8.55
2022-09-12T19:18:58.540Z,7.82
2022-09-12T19:21:28.818Z,9.38
2022-09-12T19:26:33.546Z,8.20
2022-09-12T19:29:02.798Z,11.02
2022-09-12T19:31:30.685Z,8.90
2022-09-12T19:34:04.687Z,8.23
2022-09-12T19:36:47.771Z,11.52
2022-09-12T19:39:19.517Z,8.07
2022-09-12T19:41:46.451Z,8.43
2022-09-12T19:44:13.353Z,9.38
2022-09-12T19:46:40.385Z,9.60
2022-09-12T19:49:07.061Z,9.98
2022-09-12T19:51:33.581Z,9.73
2022-09-12T19:54:00.154Z,8.07
2022-09-12T19:56:26.966Z,12.55
2022-09-12T19:58:56.724Z,8.40
2022-09-12T20:01:29.600Z,8.85
2022-09-12T20:03:57.767Z,9.85
2022-09-12T20:06:24.898Z,9.65
2022-09-12T20:08:51.588Z,8.65
2022-09-12T20:11:20.010Z,9.90
2022-09-12T20:13:46.819Z,10.45
2022-09-12T20:16:21.072Z,12.63
2022-09-12T20:18:49.487Z,9.60
2022-09-12T20:21:20.150Z,9.95
2022-09-12T20:23:47.126Z,10.13
2022-09-12T20:26:14.001Z,11.98
2022-09-12T20:28:41.661Z,10.50
2022-09-12T20:31:13.878Z,10.30
2022-09-12T20:33:41.440Z,9.95
2022-09-12T20:36:10.788Z,10.43
2022-09-12T20:38:38.007Z,13.00
2022-09-12T20:41:06.618Z,16.20
2022-09-12T20:43:33.456Z,13.25
2022-09-12T20:45:59.941Z,10.05
2022-09-12T20:48:26.576Z,15.10
2022-09-12T20:50:53.060Z,14.10
2022-09-12T20:53:19.829Z,16.80
2022-09-12T20:55:51.526Z,12.63
2022-09-12T20:58:19.318Z,10.57
2022-09-12T21:00:46.564Z,12.23
2022-09-12T21:03:14.229Z,12.27
2022-09-12T21:05:42.749Z,12.73
2022-09-12T21:08:16.047Z,11.40
2022-09-12T21:10:44.172Z,9.60
2022-09-12T21:13:11.249Z,11.90
2022-09-12T21:15:38.864Z,16.35
2022-09-12T21:18:05.765Z,13.02
2022-09-12T21:20:32.926Z,11.85
2022-09-12T21:22:59.734Z,14.90
2022-09-12T21:25:26.490Z,11.75
2022-09-12T21:27:53.003Z,11.10
2022-09-12T21:30:19.749Z,13.35
2022-09-12T21:32:46.538Z,12.05
2022-09-12T21:35:13.665Z,9.93
2022-09-12T21:37:40.265Z,11.63
2022-09-12T21:40:07.801Z,12.27
2022-09-12T21:42:34.301Z,11.60
2022-09-12T21:45:00.829Z,12.23
2022-09-12T21:47:27.529Z,14.30
2022-09-12T21:49:55.447Z,17.23
2022-09-12T21:52:23.575Z,11.90
2022-09-12T21:54:50.177Z,10.73
2022-09-12T21:57:16.786Z,12.13
2022-09-12T21:59:43.392Z,11.73
2022-09-12T22:02:10.316Z,10.77
2022-09-12T22:04:36.842Z,11.98
2022-09-12T22:07:03.369Z,9.88
2022-09-12T22:09:30.358Z,11.77
2022-09-12T22:11:56.798Z,12.10
2022-09-12T22:14:23.635Z,12.30
2022-09-12T22:16:50.294Z,13.13
2022-09-12T22:19:16.824Z,13.18
2022-09-12T22:22:03.462Z,12.80
2022-09-12T22:24:30.289Z,12.43
2022-09-12T22:26:59.128Z,10.57
2022-09-12T22:29:26.998Z,12.95
2022-09-12T22:31:53.779Z,14.32
2022-09-12T22:34:20.318Z,12.75
2022-09-12T22:36:48.518Z,13.73
2022-09-12T22:39:15.055Z,12.88
2022-09-12T22:41:41.515Z,8.18
2022-09-12T22:44:08.942Z,9.05
2022-09-12T22:46:35.538Z,9.88
2022-09-12T22:49:02.011Z,9.65
2022-09-12T22:51:28.628Z,10.15
2022-09-12T22:53:56.497Z,8.63
2022-09-12T22:56:23.298Z,9.73
2022-09-12T22:58:50.091Z,9.90
2022-09-12T23:01:16.826Z,10.35
2022-09-12T23:03:43.720Z,10.27
2022-09-12T23:06:11.423Z,10.43
2022-09-12T23:08:39.573Z,9.05
2022-09-12T23:11:12.929Z,10.38
2022-09-12T23:13:42.400Z,11.05
2022-09-12T23:16:14.831Z,12.47
2022-09-12T23:18:41.302Z,10.48
2022-09-12T23:21:10.294Z,11.85
2022-09-12T23:23:37.309Z,9.65
2022-09-12T23:26:12.578Z,12.98
2022-09-12T23:28:41.148Z,12.07
2022-09-12T23:31:09.797Z,11.73
2022-09-12T23:33:36.419Z,13.00
2022-09-12T23:36:06.824Z,14.90
2022-09-12T23:41:01.603Z,13.85
2022-09-12T23:43:29.930Z,13.02
2022-09-12T23:45:57.055Z,16.00
2022-09-12T23:48:23.852Z,15.23
2022-09-12T23:50:50.459Z,13.00
2022-09-12T23:53:17.701Z,17.13
2022-09-12T23:55:45.056Z,14.50
2022-09-12T23:58:11.782Z,14.40
